createdAt,value
2017-09-12T00:01:02.099Z,54.10
2017-09-12T00:03:29.614Z,54.00
2017-09-12T00:05:57.109Z,54.00
2017-09-12T00:08:24.627Z,54.00
2017-09-12T00:10:52.143Z,54.00
2017-09-12T00:13:19.667Z,54.00
2017-09-12T00:15:47.158Z,54.10
2017-09-12T00:18:15.447Z,54.10
2017-09-12T00:20:42.943Z,54.10
2017-09-12T00:23:11.223Z,54.10
2017-09-12T00:25:38.748Z,54.10
2017-09-12T00:28:06.259Z,54.20
2017-09-12T00:30:34.513Z,54.10
2017-09-12T00:33:02.789Z,54.10
2017-09-12T00:35:31.205Z,54.00
2017-09-12T00:37:58.730Z,54.00
2017-09-12T00:40:27.010Z,54.10
2017-09-12T00:42:55.292Z,54.10
2017-09-12T00:45:23.563Z,54.10
2017-09-12T00:47:51.855Z,54.60
2017-09-12T00:50:19.359Z,54.00
2017-09-12T00:52:46.875Z,54.10
2017-09-12T00:55:14.379Z,54.10
2017-09-12T00:57:42.793Z,54.40
2017-09-12T01:00:10.298Z,54.10
2017-09-12T01:02:37.921Z,54.10
2017-09-12T01:05:05.415Z,54.00
2017-09-12T01:07:33.027Z,54.00
2017-09-12T01:10:00.594Z,54.00
2017-09-12T01:12:28.090Z,54.10
2017-09-12T01:14:55.583Z,54.00
2017-09-12T01:17:23.242Z,54.10
2017-09-12T01:19:50.869Z,54.00
2017-09-12T01:22:18.559Z,54.00
2017-09-12T01:24:46.232Z,54.00
2017-09-12T01:27:13.735Z,54.10
2017-09-12T01:29:42.003Z,54.60
2017-09-12T01:32:09.495Z,54.10
2017-09-12T01:34:37.266Z,54.00
2017-09-12T01:37:04.763Z,54.00
2017-09-12T01:39:32.273Z,54.00
2017-09-12T01:42:00.035Z,54.00
2017-09-12T01:44:27.526Z,54.60
2017-09-12T01:46:55.045Z,54.00
2017-09-12T01:49:22.619Z,54.00
2017-09-12T01:51:50.107Z,54.00
2017-09-12T01:54:17.608Z,54.10
2017-09-12T01:56:45.186Z,53.90
2017-09-12T01:59:12.707Z,54.00
2017-09-12T02:01:41.107Z,54.00
2017-09-12T02:04:08.756Z,54.00
2017-09-12T02:06:36.242Z,54.00
2017-09-12T02:09:03.762Z,54.00
2017-09-12T02:11:31.335Z,54.00
2017-09-12T02:13:58.983Z,54.00
2017-09-12T02:16:26.512Z,54.00
2017-09-12T02:18:54.924Z,54.60
2017-09-12T02:21:22.567Z,54.10
2017-09-12T02:23:50.098Z,54.00
2017-09-12T02:26:18.502Z,54.60
2017-09-12T02:28:46.131Z,54.00
2017-09-12T02:31:13.635Z,54.00
2017-09-12T02:33:41.151Z,53.90
2017-09-12T02:36:09.423Z,54.00
2017-09-12T02:38:37.814Z,54.10
2017-09-12T02:41:05.475Z,54.00
2017-09-12T02:43:33.105Z,54.00
2017-09-12T02:46:00.603Z,53.90
2017-09-12T02:48:28.114Z,54.00
2017-09-12T02:50:56.945Z,54.10
2017-09-12T02:53:24.462Z,54.00
2017-09-12T02:55:52.723Z,54.00
2017-09-12T02:58:21.014Z,54.50
2017-09-12T03:00:49.278Z,54.60
2017-09-12T03:03:17.555Z,54.50
2017-09-12T03:05:45.818Z,54.10
2017-09-12T03:08:13.336Z,54.10
2017-09-12T03:10:41.076Z,54.00
2017-09-12T03:13:08.595Z,53.90
2017-09-12T03:15:36.859Z,54.00
2017-09-12T03:18:05.143Z,54.70
2017-09-12T03:20:33.480Z,54.10
2017-09-12T03:23:01.202Z,54.10
2017-09-12T03:25:28.698Z,54.00
2017-09-12T03:27:56.192Z,54.00
2017-09-12T03:30:24.453Z,54.10
2017-09-12T03:32:52.719Z,54.10
2017-09-12T03:35:20.339Z,54.00
2017-09-12T03:37:47.836Z,54.10
2017-09-12T03:40:15.333Z,54.00
2017-09-12T03:42:42.826Z,53.90
2017-09-12T03:45:10.331Z,53.90
2017-09-12T03:47:37.826Z,54.00
2017-09-12T03:50:05.456Z,54.00
2017-09-12T03:52:32.947Z,54.00
2017-09-12T03:55:00.443Z,53.90
2017-09-12T03:57:28.841Z,53.90
2017-09-12T03:59:56.377Z,53.90
2017-09-12T04:02:24.655Z,53.90
2017-09-12T04:04:52.414Z,53.90
2017-09-12T04:07:19.906Z,54.00
2017-09-12T04:09:47.401Z,53.90
2017-09-12T04:12:15.687Z,53.70
2017-09-12T04:14:43.959Z,54.00
2017-09-12T04:17:12.365Z,54.00
2017-09-12T04:19:39.894Z,54.00
2017-09-12T04:22:08.278Z,54.00
2017-09-12T04:24:35.799Z,54.00
2017-09-12T04:27:04.067Z,54.00
2017-09-12T04:29:31.583Z,53.90
2017-09-12T04:31:59.122Z,53.90
2017-09-12T04:34:26.782Z,54.00
2017-09-12T04:36:54.278Z,53.90
2017-09-12T04:39:21.791Z,54.00
2017-09-12T04:41:49.284Z,54.00
2017-09-12T04:44:16.834Z,54.00
2017-09-12T04:46:44.326Z,54.00
2017-09-12T04:49:11.835Z,53.90
2017-09-12T04:51:39.567Z,53.90
2017-09-12T04:54:07.241Z,54.00
2017-09-12T04:56:34.742Z,53.90
2017-09-12T04:59:02.255Z,54.00
2017-09-12T05:01:29.819Z,53.90
2017-09-12T05:03:57.342Z,53.90
2017-09-12T05:06:25.727Z,53.90
2017-09-12T05:08:53.238Z,53.90
2017-09-12T05:11:20.729Z,53.90
2017-09-12T05:13:48.251Z,54.00
2017-09-12T05:16:15.782Z,54.00
2017-09-12T05:18:43.306Z,54.00
2017-09-12T05:21:10.875Z,53.90
2017-09-12T05:23:38.391Z,54.00
2017-09-12T05:26:06.667Z,54.00
2017-09-12T05:28:34.951Z,53.90
2017-09-12T05:31:03.347Z,53.90
2017-09-12T05:33:30.846Z,53.90
2017-09-12T05:35:58.343Z,53.90
2017-09-12T05:38:25.924Z,53.90
2017-09-12T05:40:53.564Z,53.90
2017-09-12T05:43:21.219Z,53.90
2017-09-12T05:45:48.725Z,53.90
2017-09-12T05:48:17.161Z,54.00
2017-09-12T05:50:44.666Z,54.00
2017-09-12T05:53:12.931Z,54.00
2017-09-12T05:55:40.435Z,54.00
2017-09-12T05:58:08.205Z,54.00
2017-09-12T06:00:35.699Z,53.90
2017-09-12T06:03:03.201Z,53.90
2017-09-12T06:05:30.798Z,53.90
2017-09-12T06:07:58.462Z,53.90
2017-09-12T06:10:26.095Z,53.90
2017-09-12T06:12:53.591Z,53.90
2017-09-12T06:15:22.011Z,54.00
2017-09-12T06:17:49.503Z,54.00
2017-09-12T06:20:17.021Z,54.00
2017-09-12T06:22:44.564Z,54.00
2017-09-12T06:25:12.145Z,53.90
2017-09-12T06:27:39.647Z,53.80
2017-09-12T06:30:07.149Z,53.80
2017-09-12T06:32:34.807Z,53.80
2017-09-12T06:35:02.412Z,53.80
2017-09-12T06:37:29.927Z,53.90
2017-09-12T06:39:57.458Z,53.90
2017-09-12T06:42:25.900Z,54.00
2017-09-12T06:44:53.423Z,54.00
2017-09-12T06:47:20.924Z,54.00
2017-09-12T06:49:49.209Z,53.90
2017-09-12T06:52:16.706Z,53.90
2017-09-12T06:54:44.219Z,53.90
2017-09-12T06:57:11.722Z,53.90
2017-09-12T06:59:39.297Z,53.90
2017-09-12T07:02:06.795Z,53.90
2017-09-12T07:04:34.315Z,53.80
2017-09-12T07:07:01.811Z,53.90
2017-09-12T07:09:30.086Z,54.00
2017-09-12T07:11:57.652Z,54.00
2017-09-12T07:14:25.185Z,53.90
2017-09-12T07:16:53.456Z,54.00
2017-09-12T07:19:21.866Z,53.90
2017-09-12T07:21:49.387Z,53.90
2017-09-12T07:24:17.666Z,53.90
2017-09-12T07:26:46.074Z,53.90
2017-09-12T07:29:13.597Z,53.90
2017-09-12T07:31:41.874Z,53.90
2017-09-12T07:34:10.160Z,54.00
2017-09-12T07:36:37.668Z,54.00
2017-09-12T07:39:05.159Z,53.90
2017-09-12T07:41:32.820Z,54.00
2017-09-12T07:44:00.318Z,53.90
2017-09-12T07:46:27.959Z,53.90
2017-09-12T07:48:55.614Z,53.90
2017-09-12T07:51:23.256Z,53.90
2017-09-12T07:53:50.911Z,53.90
2017-09-12T07:56:18.408Z,53.80
2017-09-12T07:58:46.022Z,53.80
2017-09-12T08:01:13.682Z,53.90
2017-09-12T08:03:41.377Z,53.90
2017-09-12T08:06:08.875Z,53.90
2017-09-12T08:08:37.248Z,53.90
2017-09-12T08:11:04.946Z,53.80
2017-09-12T08:13:32.438Z,53.80
2017-09-12T08:16:00.043Z,53.90
2017-09-12T08:18:27.539Z,53.90
2017-09-12T08:20:55.056Z,53.80
2017-09-12T08:23:22.572Z,53.80
2017-09-12T08:25:50.095Z,53.80
2017-09-12T08:28:17.738Z,53.80
2017-09-12T08:30:45.386Z,53.80
2017-09-12T08:33:12.883Z,53.90
2017-09-12T08:35:40.383Z,53.80
2017-09-12T08:38:08.650Z,53.80
2017-09-12T08:40:37.034Z,53.80
2017-09-12T08:43:04.566Z,53.80
2017-09-12T08:45:32.852Z,53.90
2017-09-12T08:48:01.124Z,53.90
2017-09-12T08:50:29.391Z,53.90
2017-09-12T08:52:57.691Z,53.90
2017-09-12T08:55:25.263Z,53.80
2017-09-12T08:57:52.799Z,53.80
2017-09-12T09:00:20.379Z,53.80
2017-09-12T09:02:47.872Z,53.90
2017-09-12T09:05:15.382Z,54.00
2017-09-12T09:07:42.887Z,54.00
2017-09-12T09:10:10.579Z,53.90
2017-09-12T09:12:38.099Z,53.80
2017-09-12T09:15:05.592Z,53.80
2017-09-12T09:17:33.091Z,53.90
2017-09-12T09:20:00.606Z,53.80
2017-09-12T09:22:28.121Z,53.90
2017-09-12T09:24:55.731Z,53.90
2017-09-12T09:27:23.370Z,53.90
2017-09-12T09:29:50.891Z,53.90
2017-09-12T09:32:18.382Z,53.90
2017-09-12T09:34:45.938Z,53.90
2017-09-12T09:37:13.431Z,53.90
2017-09-12T09:39:40.951Z,53.90
2017-09-12T09:42:08.520Z,54.00
2017-09-12T09:44:36.179Z,54.00
2017-09-12T09:47:03.787Z,53.90
2017-09-12T09:49:31.290Z,54.00
2017-09-12T09:51:58.782Z,54.00
2017-09-12T09:54:26.279Z,54.00
2017-09-12T09:56:53.879Z,53.90
2017-09-12T09:59:21.502Z,54.00
2017-09-12T10:01:49.159Z,53.90
2017-09-12T10:04:16.821Z,53.90
2017-09-12T10:06:44.427Z,53.90
2017-09-12T10:09:11.926Z,53.90
2017-09-12T10:11:39.431Z,53.90
2017-09-12T10:14:06.962Z,53.80
2017-09-12T10:16:34.502Z,53.90
2017-09-12T10:19:02.064Z,53.80
2017-09-12T10:21:29.607Z,53.90
2017-09-12T10:23:57.266Z,53.80
2017-09-12T10:26:24.930Z,53.90
2017-09-12T10:28:52.599Z,53.90
2017-09-12T10:31:20.094Z,53.90
2017-09-12T10:33:47.586Z,53.80
2017-09-12T10:36:15.099Z,53.80
2017-09-12T10:38:42.806Z,53.90
2017-09-12T10:41:10.302Z,53.90
2017-09-12T10:43:37.796Z,53.90
2017-09-12T10:46:06.063Z,54.50
2017-09-12T10:48:34.329Z,54.10
2017-09-12T10:51:01.828Z,53.90
2017-09-12T10:53:29.322Z,53.90
2017-09-12T10:55:56.840Z,53.90
2017-09-12T10:58:24.330Z,53.90
2017-09-12T11:00:51.939Z,53.90
2017-09-12T11:03:19.430Z,53.90
2017-09-12T11:05:46.951Z,54.00
2017-09-12T11:08:14.540Z,53.90
2017-09-12T11:10:42.171Z,53.90
2017-09-12T11:13:09.664Z,53.90
2017-09-12T11:15:37.179Z,54.00
2017-09-12T11:18:04.679Z,53.90
2017-09-12T11:20:32.198Z,53.90
2017-09-12T11:22:59.739Z,53.90
2017-09-12T11:25:27.391Z,53.90
2017-09-12T11:27:54.976Z,54.00
2017-09-12T11:30:22.503Z,53.90
2017-09-12T11:32:50.763Z,53.90
2017-09-12T11:35:19.055Z,53.90
2017-09-12T11:37:46.551Z,53.90
2017-09-12T11:40:14.073Z,53.90
2017-09-12T11:42:41.574Z,53.90
2017-09-12T11:45:09.227Z,53.90
2017-09-12T11:47:36.731Z,54.00
2017-09-12T11:50:04.227Z,54.00
2017-09-12T11:52:31.951Z,53.90
2017-09-12T11:54:59.611Z,53.80
2017-09-12T11:57:27.299Z,53.80
2017-09-12T11:59:54.943Z,53.80
2017-09-12T12:02:22.438Z,53.80
2017-09-12T12:04:50.051Z,53.80
2017-09-12T12:07:17.662Z,53.80
2017-09-12T12:09:45.373Z,53.90
2017-09-12T12:12:13.018Z,54.00
2017-09-12T12:14:40.658Z,54.00
2017-09-12T12:17:08.335Z,53.90
2017-09-12T12:19:35.970Z,53.90
2017-09-12T12:22:03.467Z,53.90
2017-09-12T12:24:31.071Z,54.00
2017-09-12T12:26:58.773Z,54.00
2017-09-12T12:29:26.266Z,54.00
2017-09-12T12:31:53.787Z,54.00
2017-09-12T12:34:21.278Z,53.90
2017-09-12T12:36:48.783Z,54.00
2017-09-12T12:39:16.446Z,54.00
2017-09-12T12:41:43.942Z,53.90
2017-09-12T12:44:11.552Z,53.90
2017-09-12T12:46:39.211Z,54.00
2017-09-12T12:49:06.906Z,54.00
2017-09-12T12:51:34.535Z,53.90
2017-09-12T12:54:02.039Z,53.90
2017-09-12T12:56:29.653Z,53.90
2017-09-12T12:58:57.154Z,54.00
2017-09-12T13:01:24.752Z,54.00
2017-09-12T13:03:52.264Z,54.00
2017-09-12T13:06:19.762Z,54.00
2017-09-12T13:08:47.527Z,54.00
2017-09-12T13:11:15.035Z,53.90
2017-09-12T13:13:42.534Z,53.90
2017-09-12T13:16:10.050Z,54.00
2017-09-12T13:18:37.556Z,54.00
2017-09-12T13:21:05.083Z,54.00
2017-09-12T13:23:33.357Z,53.90
2017-09-12T13:26:01.619Z,53.90
2017-09-12T13:28:29.878Z,54.60
2017-09-12T13:30:57.487Z,53.90
2017-09-12T13:33:25.106Z,53.90
2017-09-12T13:35:53.426Z,53.90
2017-09-12T13:38:21.066Z,53.90
2017-09-12T13:40:48.732Z,53.90
2017-09-12T13:43:16.230Z,53.80
2017-09-12T13:45:43.834Z,53.80
2017-09-12T13:48:11.351Z,53.90
2017-09-12T13:50:39.626Z,53.90
2017-09-12T13:53:07.151Z,53.80
2017-09-12T13:55:34.679Z,53.90
2017-09-12T13:58:02.339Z,53.90
2017-09-12T14:00:29.834Z,53.90
2017-09-12T14:02:57.333Z,53.90
2017-09-12T14:05:25.591Z,53.90
2017-09-12T14:07:53.854Z,53.80
2017-09-12T14:10:21.476Z,53.80
2017-09-12T14:12:48.991Z,53.90
2017-09-12T14:15:17.242Z,53.90
2017-09-12T14:17:44.759Z,53.90
2017-09-12T14:20:12.310Z,54.40
2017-09-12T14:22:39.811Z,53.80
2017-09-12T14:25:07.307Z,53.70
2017-09-12T14:27:34.863Z,53.40
2017-09-12T14:30:02.391Z,53.90
2017-09-12T14:32:30.774Z,53.90
2017-09-12T14:34:58.263Z,53.90
2017-09-12T14:37:25.754Z,53.90
2017-09-12T14:39:53.246Z,53.90
2017-09-12T14:42:20.738Z,53.90
2017-09-12T14:44:48.287Z,53.80
2017-09-12T14:47:15.784Z,53.90
2017-09-12T14:49:43.375Z,53.90
2017-09-12T14:52:10.879Z,53.90
2017-09-12T14:54:38.395Z,54.00
2017-09-12T14:57:05.891Z,53.80
2017-09-12T14:59:33.599Z,53.80
2017-09-12T15:02:01.090Z,53.90
2017-09-12T15:04:28.594Z,53.90
2017-09-12T15:06:56.855Z,54.00
2017-09-12T15:09:25.127Z,53.90
2017-09-12T15:11:53.391Z,53.90
2017-09-12T15:14:20.886Z,53.80
2017-09-12T15:16:48.387Z,53.90
2017-09-12T15:19:15.903Z,53.90
2017-09-12T15:21:43.543Z,53.90
2017-09-12T15:24:11.040Z,53.90
2017-09-12T15:26:38.542Z,53.90
2017-09-12T15:29:06.803Z,53.90
2017-09-12T15:31:35.218Z,54.00
2017-09-12T15:34:02.725Z,54.00
2017-09-12T15:36:30.434Z,53.90
2017-09-12T15:38:58.179Z,54.50
2017-09-12T15:41:25.710Z,53.90
2017-09-12T15:43:54.127Z,54.00
2017-09-12T15:46:21.650Z,54.00
2017-09-12T15:48:49.911Z,54.00
2017-09-12T15:51:17.499Z,54.00
2017-09-12T15:53:45.001Z,54.00
2017-09-12T15:56:12.507Z,54.00
2017-09-12T15:58:40.067Z,54.00
2017-09-12T16:01:07.730Z,54.00
2017-09-12T16:03:35.371Z,54.00
2017-09-12T16:06:02.947Z,54.00
2017-09-12T16:08:30.799Z,53.80
2017-09-12T16:10:58.563Z,53.90
2017-09-12T16:13:26.079Z,54.00
2017-09-12T16:15:53.599Z,54.00
2017-09-12T16:18:21.331Z,54.00
2017-09-12T16:20:48.831Z,54.00
2017-09-12T16:23:16.323Z,54.00
2017-09-12T16:25:44.595Z,54.00
2017-09-12T16:28:12.866Z,54.00
2017-09-12T16:30:41.139Z,53.90
2017-09-12T16:33:09.537Z,54.00
2017-09-12T16:35:37.044Z,53.90
2017-09-12T16:38:04.646Z,53.90
2017-09-12T16:40:32.211Z,53.90
2017-09-12T16:42:59.724Z,53.90
2017-09-12T16:45:27.429Z,53.90
2017-09-12T16:47:54.928Z,53.90
2017-09-12T16:50:22.540Z,53.90
2017-09-12T16:52:50.035Z,53.90
2017-09-12T16:55:18.415Z,53.90
2017-09-12T16:57:46.119Z,53.80
2017-09-12T17:00:13.778Z,53.80
2017-09-12T17:02:41.440Z,53.90
2017-09-12T17:05:09.098Z,53.90
2017-09-12T17:07:36.591Z,53.80
2017-09-12T17:10:04.079Z,53.80
2017-09-12T17:12:32.350Z,54.50
2017-09-12T17:15:00.783Z,53.80
2017-09-12T17:17:28.291Z,53.90
2017-09-12T17:19:56.563Z,53.90
2017-09-12T17:22:24.959Z,53.90
2017-09-12T17:24:52.614Z,53.90
2017-09-12T17:27:20.275Z,53.80
2017-09-12T17:29:47.771Z,53.80
2017-09-12T17:32:15.386Z,53.80
2017-09-12T17:34:43.054Z,53.80
2017-09-12T17:37:10.567Z,53.80
2017-09-12T17:39:38.110Z,53.90
2017-09-12T17:42:05.628Z,53.90
2017-09-12T17:44:33.132Z,53.90
2017-09-12T17:47:01.397Z,53.90
2017-09-12T17:49:29.823Z,53.80
2017-09-12T17:51:57.352Z,53.90
2017-09-12T17:54:25.760Z,53.80
2017-09-12T17:56:53.283Z,53.80
2017-09-12T17:59:21.559Z,53.80
2017-09-12T18:01:49.840Z,53.80
2017-09-12T18:04:18.110Z,53.80
2017-09-12T18:06:46.505Z,53.70
2017-09-12T18:09:14.159Z,53.70
2017-09-12T18:11:41.671Z,53.70
2017-09-12T18:14:09.167Z,53.70
2017-09-12T18:16:36.663Z,53.70
2017-09-12T18:19:04.175Z,53.70
2017-09-12T18:21:31.842Z,53.70
2017-09-12T18:23:59.345Z,53.80
2017-09-12T18:26:26.856Z,53.80
2017-09-12T18:28:54.498Z,53.80
2017-09-12T18:31:22.190Z,53.80
2017-09-12T18:33:49.728Z,53.90
2017-09-12T18:36:17.395Z,53.80
2017-09-12T18:38:44.895Z,53.80
2017-09-12T18:41:12.386Z,53.80
2017-09-12T18:43:39.947Z,53.80
2017-09-12T18:46:07.606Z,53.80
2017-09-12T18:48:35.099Z,53.80
2017-09-12T18:51:02.727Z,53.70
2017-09-12T18:53:30.227Z,53.70
2017-09-12T18:55:58.498Z,53.80
2017-09-12T18:58:26.099Z,53.80
2017-09-12T19:00:53.715Z,53.90
2017-09-12T19:03:21.418Z,53.80
2017-09-12T19:05:48.921Z,53.80
2017-09-12T19:08:16.543Z,53.90
2017-09-12T19:10:44.807Z,53.80
2017-09-12T19:13:12.512Z,53.80
2017-09-12T19:15:40.139Z,53.80
2017-09-12T19:18:07.635Z,53.90
2017-09-12T19:20:35.131Z,53.90
2017-09-12T19:23:02.687Z,53.90
2017-09-12T19:25:30.183Z,53.80
2017-09-12T19:27:57.681Z,53.80
2017-09-12T19:30:25.943Z,53.80
2017-09-12T19:32:54.212Z,53.90
2017-09-12T19:35:22.495Z,53.80
2017-09-12T19:37:50.899Z,53.80
2017-09-12T19:40:18.407Z,53.60
2017-09-12T19:42:45.920Z,53.80
2017-09-12T19:45:13.506Z,53.80
2017-09-12T19:47:41.074Z,53.80
2017-09-12T19:50:08.566Z,53.80
2017-09-12T19:52:36.066Z,53.80
2017-09-12T19:55:03.622Z,53.80
2017-09-12T19:57:31.139Z,53.80
2017-09-12T19:59:58.635Z,53.70
2017-09-12T20:02:26.131Z,53.70
2017-09-12T20:04:54.506Z,53.80
2017-09-12T20:07:22.015Z,53.70
2017-09-12T20:09:49.522Z,53.70
2017-09-12T20:12:17.111Z,53.70
2017-09-12T20:14:44.604Z,53.70
2017-09-12T20:17:12.864Z,53.80
2017-09-12T20:19:40.355Z,53.80
2017-09-12T20:22:08.619Z,53.80
2017-09-12T20:24:36.879Z,53.80
2017-09-12T20:27:04.490Z,53.60
2017-09-12T20:29:31.979Z,53.70
2017-09-12T20:31:59.583Z,53.70
2017-09-12T20:34:27.079Z,53.70
2017-09-12T20:36:54.574Z,53.70
2017-09-12T20:39:22.830Z,53.50
2017-09-12T20:41:51.087Z,53.60
2017-09-12T20:44:18.579Z,53.60
2017-09-12T20:46:46.850Z,53.70
2017-09-12T20:49:14.647Z,53.70
2017-09-12T20:51:42.139Z,53.70
2017-09-12T20:54:10.416Z,53.70
2017-09-12T20:56:37.928Z,53.60
2017-09-12T20:59:05.694Z,53.70
2017-09-12T21:01:33.331Z,53.70
2017-09-12T21:04:00.988Z,53.60
2017-09-12T21:06:28.647Z,53.80
2017-09-12T21:08:56.311Z,53.70
2017-09-12T21:11:23.858Z,53.70
2017-09-12T21:13:51.434Z,53.70
2017-09-12T21:16:19.094Z,53.70
2017-09-12T21:18:46.595Z,53.70
2017-09-12T21:21:14.187Z,53.70
2017-09-12T21:23:41.852Z,53.70
2017-09-12T21:26:09.554Z,53.70
2017-09-12T21:28:37.170Z,53.60
2017-09-12T21:31:04.671Z,53.60
2017-09-12T21:33:32.159Z,53.60
2017-09-12T21:36:00.424Z,53.60
2017-09-12T21:38:28.685Z,53.60
2017-09-12T21:40:57.112Z,53.80
2017-09-12T21:43:24.602Z,53.50
2017-09-12T21:45:52.100Z,53.50
2017-09-12T21:48:19.668Z,53.50
2017-09-12T21:50:47.322Z,53.60
2017-09-12T21:53:14.847Z,53.50
2017-09-12T21:55:42.347Z,53.40
2017-09-12T21:58:09.931Z,53.90
2017-09-12T22:00:37.543Z,53.30
2017-09-12T22:03:05.207Z,53.30
2017-09-12T22:05:32.867Z,53.40
2017-09-12T22:08:00.519Z,53.40
2017-09-12T22:10:28.011Z,53.30
2017-09-12T22:12:55.635Z,53.40
2017-09-12T22:15:23.290Z,53.40
2017-09-12T22:17:50.785Z,53.30
2017-09-12T22:20:18.427Z,53.40
2017-09-12T22:22:45.924Z,53.30
2017-09-12T22:25:14.187Z,54.00
2017-09-12T22:27:41.806Z,53.40
2017-09-12T22:30:09.298Z,53.40
2017-09-12T22:32:36.902Z,53.30
2017-09-12T22:35:04.390Z,53.20
2017-09-12T22:37:31.895Z,53.30
2017-09-12T22:40:00.304Z,53.40
2017-09-12T22:42:27.798Z,53.40
2017-09-12T22:44:55.398Z,53.30
2017-09-12T22:47:23.056Z,53.30
2017-09-12T22:49:50.744Z,53.30
2017-09-12T22:52:18.257Z,53.40
2017-09-12T22:54:46.518Z,53.40
2017-09-12T22:57:14.775Z,53.80
2017-09-12T22:59:42.279Z,53.30
2017-09-12T23:02:09.840Z,53.40
2017-09-12T23:04:37.332Z,53.40
2017-09-12T23:07:04.823Z,53.30
2017-09-12T23:09:33.086Z,53.30
2017-09-12T23:12:01.488Z,53.30
2017-09-12T23:14:29.146Z,53.30
2017-09-12T23:16:56.807Z,53.30
2017-09-12T23:19:24.323Z,53.20
2017-09-12T23:21:51.915Z,53.40
2017-09-12T23:24:19.574Z,53.90
2017-09-12T23:26:47.065Z,53.20
2017-09-12T23:29:14.703Z,53.30
2017-09-12T23:31:42.199Z,53.30
2017-09-12T23:34:09.808Z,53.30
2017-09-12T23:36:37.310Z,53.30
2017-09-12T23:39:04.930Z,53.30
2017-09-12T23:41:32.567Z,53.30
2017-09-12T23:44:00.230Z,53.40
2017-09-12T23:46:27.731Z,53.40
2017-09-12T23:48:55.302Z,53.40
2017-09-12T23:51:22.811Z,53.40
2017-09-12T23:53:50.338Z,53.30
2017-09-12T23:56:18.611Z,53.40
2017-09-12T23:58:46.887Z,53.20
